sensor_id;sensor_type;location;lat;lon;timestamp;pressure;altitude;pressure_sealevel;temperature;humidity
4398;BME280;2213;49.720;7.296;2023-06-22T00:00:37;98268.00;;;23.50;100.00
4398;BME280;2213;49.720;7.296;2023-06-22T00:03:07;98300.34;;;23.48;100.00
4398;BME280;2213;49.720;7.296;2023-06-22T00:05:35;98329.69;;;23.43;100.00
4398;BME280;2213;49.720;7.296;2023-06-22T00:08:05;98358.97;;;23.28;100.00
4398;BME280;2213;49.720;7.296;2023-06-22T00:10:34;98362.69;;;23.27;100.00
4398;BME280;2213;49.720;7.296;2023-06-22T00:13:03;98357.88;;;23.24;100.00
4398;BME280;2213;49.720;7.296;2023-06-22T00:15:34;98343.72;;;23.24;100.00
4398;BME280;2213;49.720;7.296;2023-06-22T00:18:05;98318.63;;;23.20;100.00
4398;BME280;2213;49.720;7.296;2023-06-22T00:20:34;98309.00;;;23.19;100.00
4398;BME280;2213;49.720;7.296;2023-06-22T00:23:06;98305.56;;;23.18;100.00
4398;BME280;2213;49.720;7.296;2023-06-22T00:25:36;98304.72;;;23.08;100.00
4398;BME280;2213;49.720;7.296;2023-06-22T00:28:06;98284.16;;;23.03;100.00
4398;BME280;2213;49.720;7.296;2023-06-22T00:30:38;98269.19;;;23.02;100.00
4398;BME280;2213;49.720;7.296;2023-06-22T00:33:07;98259.88;;;23.04;100.00
4398;BME280;2213;49.720;7.296;2023-06-22T00:35:35;98256.38;;;22.99;100.00
4398;BME280;2213;49.720;7.296;2023-06-22T00:38:04;98268.63;;;22.95;100.00
4398;BME280;2213;49.720;7.296;2023-06-22T00:40:33;98269.19;;;22.97;100.00
4398;BME280;2213;49.720;7.296;2023-06-22T00:43:02;98267.31;;;22.97;100.00
4398;BME280;2213;49.720;7.296;2023-06-22T00:45:32;98278.22;;;22.91;100.00
4398;BME280;2213;49.720;7.296;2023-06-22T00:48:05;98277.69;;;22.84;100.00
4398;BME280;2213;49.720;7.296;2023-06-22T00:50:36;98271.53;;;22.83;100.00
4398;BME280;2213;49.720;7.296;2023-06-22T00:53:07;98256.84;;;22.81;100.00
4398;BME280;2213;49.720;7.296;2023-06-22T00:55:38;98238.16;;;22.76;100.00
4398;BME280;2213;49.720;7.296;2023-06-22T00:58:10;98209.06;;;22.74;100.00
4398;BME280;2213;49.720;7.296;2023-06-22T01:00:40;98199.50;;;22.73;100.00
4398;BME280;2213;49.720;7.296;2023-06-22T01:03:11;98201.56;;;22.66;100.00
4398;BME280;2213;49.720;7.296;2023-06-22T01:05:40;98202.13;;;22.68;100.00
4398;BME280;2213;49.720;7.296;2023-06-22T01:08:27;98190.34;;;22.64;100.00
4398;BME280;2213;49.720;7.296;2023-06-22T01:11:07;98180.44;;;22.59;100.00
4398;BME280;2213;49.720;7.296;2023-06-22T01:13:45;98196.19;;;22.56;100.00
4398;BME280;2213;49.720;7.296;2023-06-22T01:16:23;98188.97;;;22.56;100.00
4398;BME280;2213;49.720;7.296;2023-06-22T01:18:59;98188.13;;;22.46;100.00
4398;BME280;2213;49.720;7.296;2023-06-22T01:21:32;98203.06;;;22.42;100.00
4398;BME280;2213;49.720;7.296;2023-06-22T01:24:22;98201.16;;;22.42;100.00
4398;BME280;2213;49.720;7.296;2023-06-22T01:27:08;98207.59;;;22.46;100.00
4398;BME280;2213;49.720;7.296;2023-06-22T01:29:41;98227.28;;;22.40;100.00
4398;BME280;2213;49.720;7.296;2023-06-22T01:32:12;98238.72;;;22.36;100.00
4398;BME280;2213;49.720;7.296;2023-06-22T01:34:42;98250.75;;;22.38;100.00
4398;BME280;2213;49.720;7.296;2023-06-22T01:37:13;98250.22;;;22.41;100.00
4398;BME280;2213;49.720;7.296;2023-06-22T01:39:43;98260.31;;;22.39;100.00
4398;BME280;2213;49.720;7.296;2023-06-22T01:42:12;98270.16;;;22.39;100.00
4398;BME280;2213;49.720;7.296;2023-06-22T01:44:43;98288.00;;;22.33;100.00
4398;BME280;2213;49.720;7.296;2023-06-22T01:47:14;98294.09;;;22.29;100.00
4398;BME280;2213;49.720;7.296;2023-06-22T01:49:42;98255.72;;;22.25;100.00
4398;BME280;2213;49.720;7.296;2023-06-22T01:52:11;98208.28;;;22.27;100.00
4398;BME280;2213;49.720;7.296;2023-06-22T01:54:40;98205.09;;;22.25;100.00
4398;BME280;2213;49.720;7.296;2023-06-22T01:57:09;98169.09;;;22.22;100.00
4398;BME280;2213;49.720;7.296;2023-06-22T01:59:48;98134.47;;;22.27;100.00
4398;BME280;2213;49.720;7.296;2023-06-22T02:02:20;98133.94;;;22.25;100.00
4398;BME280;2213;49.720;7.296;2023-06-22T02:05:04;98125.41;;;22.23;100.00
4398;BME280;2213;49.720;7.296;2023-06-22T02:07:43;98111.00;;;22.19;100.00
4398;BME280;2213;49.720;7.296;2023-06-22T02:10:15;98120.03;;;22.18;100.00
4398;BME280;2213;49.720;7.296;2023-06-22T02:12:45;98141.91;;;22.20;100.00
4398;BME280;2213;49.720;7.296;2023-06-22T02:15:17;98152.00;;;22.13;100.00
4398;BME280;2213;49.720;7.296;2023-06-22T02:17:47;98155.19;;;22.10;100.00
4398;BME280;2213;49.720;7.296;2023-06-22T02:20:16;98163.69;;;22.12;100.00
4398;BME280;2213;49.720;7.296;2023-06-22T02:22:45;98156.22;;;22.09;100.00
4398;BME280;2213;49.720;7.296;2023-06-22T02:25:14;98153.03;;;22.12;100.00
4398;BME280;2213;49.720;7.296;2023-06-22T02:27:43;98152.53;;;22.15;100.00
4398;BME280;2213;49.720;7.296;2023-06-22T02:30:16;98148.00;;;22.16;100.00
4398;BME280;2213;49.720;7.296;2023-06-22T02:32:46;98150.66;;;22.16;100.00
4398;BME280;2213;49.720;7.296;2023-06-22T02:35:15;98147.72;;;22.12;100.00
4398;BME280;2213;49.720;7.296;2023-06-22T02:37:45;98141.34;;;22.13;100.00
4398;BME280;2213;49.720;7.296;2023-06-22T02:40:13;98139.22;;;22.15;100.00
4398;BME280;2213;49.720;7.296;2023-06-22T02:42:43;98141.59;;;22.12;100.00
4398;BME280;2213;49.720;7.296;2023-06-22T02:45:12;98141.28;;;22.08;100.00
4398;BME280;2213;49.720;7.296;2023-06-22T02:47:43;98151.66;;;22.04;100.00
4398;BME280;2213;49.720;7.296;2023-06-22T02:50:11;98142.63;;;22.05;100.00
4398;BME280;2213;49.720;7.296;2023-06-22T02:52:40;98138.63;;;22.03;100.00
4398;BME280;2213;49.720;7.296;2023-06-22T02:55:09;98139.72;;;22.07;100.00
4398;BME280;2213;49.720;7.296;2023-06-22T02:57:37;98134.91;;;22.04;100.00
4398;BME280;2213;49.720;7.296;2023-06-22T03:00:14;98129.81;;;22.02;100.00
4398;BME280;2213;49.720;7.296;2023-06-22T03:02:48;98127.41;;;22.01;100.00
4398;BME280;2213;49.720;7.296;2023-06-22T03:05:17;98116.50;;;22.02;100.00
4398;BME280;2213;49.720;7.296;2023-06-22T03:07:46;98108.75;;;22.01;100.00
4398;BME280;2213;49.720;7.296;2023-06-22T03:10:16;98115.69;;;21.97;100.00
4398;BME280;2213;49.720;7.296;2023-06-22T03:12:45;98113.56;;;21.99;100.00
4398;BME280;2213;49.720;7.296;2023-06-22T03:15:13;98123.09;;;21.90;100.00
4398;BME280;2213;49.720;7.296;2023-06-22T03:17:42;98115.66;;;21.92;100.00
4398;BME280;2213;49.720;7.296;2023-06-22T03:20:12;98116.69;;;21.91;100.00
4398;BME280;2213;49.720;7.296;2023-06-22T03:22:45;98113.22;;;21.90;100.00
4398;BME280;2213;49.720;7.296;2023-06-22T03:25:14;98118.00;;;21.88;100.00
4398;BME280;2213;49.720;7.296;2023-06-22T03:27:43;98110.53;;;21.85;100.00
4398;BME280;2213;49.720;7.296;2023-06-22T03:30:12;98109.44;;;21.81;100.00
4398;BME280;2213;49.720;7.296;2023-06-22T03:32:41;98115.56;;;21.82;100.00
4398;BME280;2213;49.720;7.296;2023-06-22T03:35:12;98105.16;;;21.80;100.00
4398;BME280;2213;49.720;7.296;2023-06-22T03:37:44;98105.94;;;21.76;100.00
4398;BME280;2213;49.720;7.296;2023-06-22T03:40:13;98109.13;;;21.73;100.00
4398;BME280;2213;49.720;7.296;2023-06-22T03:42:41;98115.50;;;21.72;100.00
4398;BME280;2213;49.720;7.296;2023-06-22T03:45:10;98101.63;;;21.70;100.00
4398;BME280;2213;49.720;7.296;2023-06-22T03:47:40;98104.84;;;21.72;100.00
4398;BME280;2213;49.720;7.296;2023-06-22T03:50:09;98116.03;;;21.69;100.00
4398;BME280;2213;49.720;7.296;2023-06-22T03:52:39;98109.09;;;21.68;100.00
4398;BME280;2213;49.720;7.296;2023-06-22T03:55:10;98108.78;;;21.64;100.00
4398;BME280;2213;49.720;7.296;2023-06-22T03:57:39;98119.16;;;21.61;100.00
4398;BME280;2213;49.720;7.296;2023-06-22T04:00:10;98118.06;;;21.56;100.00
4398;BME280;2213;49.720;7.296;2023-06-22T04:02:39;98121.22;;;21.48;100.00
4398;BME280;2213;49.720;7.296;2023-06-22T04:05:09;98122.53;;;21.51;100.00
4398;BME280;2213;49.720;7.296;2023-06-22T04:07:39;98118.28;;;21.50;100.00
4398;BME280;2213;49.720;7.296;2023-06-22T04:10:09;98120.41;;;21.48;100.00
4398;BME280;2213;49.720;7.296;2023-06-22T04:12:39;98115.88;;;21.48;100.00
4398;BME280;2213;49.720;7.296;2023-06-22T04:15:09;98122.50;;;21.46;100.00
4398;BME280;2213;49.720;7.296;2023-06-22T04:17:39;98118.50;;;21.43;100.00
4398;BME280;2213;49.720;7.296;2023-06-22T04:20:11;98116.88;;;21.42;100.00
4398;BME280;2213;49.720;7.296;2023-06-22T04:22:41;98114.78;;;21.44;100.00
4398;BME280;2213;49.720;7.296;2023-06-22T04:25:10;98116.38;;;21.45;100.00
4398;BME280;2213;49.720;7.296;2023-06-22T04:27:39;98106.22;;;21.42;100.00
4398;BME280;2213;49.720;7.296;2023-06-22T04:30:09;98104.09;;;21.39;100.00
4398;BME280;2213;49.720;7.296;2023-06-22T04:32:39;98116.28;;;21.35;100.00
4398;BME280;2213;49.720;7.296;2023-06-22T04:35:09;98121.03;;;21.28;100.00
4398;BME280;2213;49.720;7.296;2023-06-22T04:37:38;98118.94;;;21.30;100.00
4398;BME280;2213;49.720;7.296;2023-06-22T04:40:09;98115.19;;;21.31;100.00
4398;BME280;2213;49.720;7.296;2023-06-22T04:42:42;98102.44;;;21.33;100.00
4398;BME280;2213;49.720;7.296;2023-06-22T04:45:21;98103.25;;;21.34;100.00
4398;BME280;2213;49.720;7.296;2023-06-22T04:47:51;98102.44;;;21.33;100.00
4398;BME280;2213;49.720;7.296;2023-06-22T04:50:20;98100.03;;;21.32;100.00
4398;BME280;2213;49.720;7.296;2023-06-22T04:52:51;98097.66;;;21.30;100.00
4398;BME280;2213;49.720;7.296;2023-06-22T04:55:21;98099.22;;;21.31;100.00
4398;BME280;2213;49.720;7.296;2023-06-22T04:57:50;98085.16;;;21.36;100.00
4398;BME280;2213;49.720;7.296;2023-06-22T05:00:20;98081.75;;;21.40;100.00
4398;BME280;2213;49.720;7.296;2023-06-22T05:02:50;98081.75;;;21.40;100.00
4398;BME280;2213;49.720;7.296;2023-06-22T05:05:30;98087.06;;;21.40;100.00
4398;BME280;2213;49.720;7.296;2023-06-22T05:08:00;98086.25;;;21.40;100.00
4398;BME280;2213;49.720;7.296;2023-06-22T05:10:32;98087.38;;;21.44;100.00
4398;BME280;2213;49.720;7.296;2023-06-22T05:13:00;98080.72;;;21.46;100.00
4398;BME280;2213;49.720;7.296;2023-06-22T05:15:29;98087.66;;;21.47;100.00
4398;BME280;2213;49.720;7.296;2023-06-22T05:18:04;98087.09;;;21.45;100.00
4398;BME280;2213;49.720;7.296;2023-06-22T05:20:33;98082.84;;;21.44;100.00
4398;BME280;2213;49.720;7.296;2023-06-22T05:23:04;98075.97;;;21.48;100.00
4398;BME280;2213;49.720;7.296;2023-06-22T05:25:34;98072.28;;;21.54;100.00
4398;BME280;2213;49.720;7.296;2023-06-22T05:28:03;98082.41;;;21.57;100.00
4398;BME280;2213;49.720;7.296;2023-06-22T05:30:38;98087.22;;;21.61;100.00
4398;BME280;2213;49.720;7.296;2023-06-22T05:33:07;98097.84;;;21.61;100.00
4398;BME280;2213;49.720;7.296;2023-06-22T05:35:35;98098.38;;;21.63;100.00
4398;BME280;2213;49.720;7.296;2023-06-22T05:38:04;98106.94;;;21.65;100.00
4398;BME280;2213;49.720;7.296;2023-06-22T05:40:34;98090.97;;;21.70;100.00
4398;BME280;2213;49.720;7.296;2023-06-22T05:43:02;98095.28;;;21.76;100.00
4398;BME280;2213;49.720;7.296;2023-06-22T05:45:31;98095.00;;;21.72;100.00
4398;BME280;2213;49.720;7.296;2023-06-22T05:48:01;98101.69;;;21.80;100.00
4398;BME280;2213;49.720;7.296;2023-06-22T05:50:29;98115.84;;;21.85;100.00
4398;BME280;2213;49.720;7.296;2023-06-22T05:52:58;98107.34;;;21.88;100.00
4398;BME280;2213;49.720;7.296;2023-06-22T05:55:27;98098.06;;;21.91;100.00
4398;BME280;2213;49.720;7.296;2023-06-22T05:57:57;98100.19;;;21.94;100.00
4398;BME280;2213;49.720;7.296;2023-06-22T06:00:25;98095.97;;;21.98;100.00
4398;BME280;2213;49.720;7.296;2023-06-22T06:02:56;98086.13;;;21.98;100.00
4398;BME280;2213;49.720;7.296;2023-06-22T06:05:32;98086.69;;;22.00;100.00
4398;BME280;2213;49.720;7.296;2023-06-22T06:08:02;98083.22;;;22.05;100.00
4398;BME280;2213;49.720;7.296;2023-06-22T06:10:33;98095.75;;;22.10;100.00
4398;BME280;2213;49.720;7.296;2023-06-22T06:13:05;98090.44;;;22.15;100.00
4398;BME280;2213;49.720;7.296;2023-06-22T06:15:35;98098.72;;;22.18;100.00
4398;BME280;2213;49.720;7.296;2023-06-22T06:18:03;98094.47;;;22.22;100.00
4398;BME280;2213;49.720;7.296;2023-06-22T06:20:33;98088.38;;;22.27;100.00
4398;BME280;2213;49.720;7.296;2023-06-22T06:23:02;98084.38;;;22.29;100.00
4398;BME280;2213;49.720;7.296;2023-06-22T06:25:31;98081.75;;;22.34;100.00
4398;BME280;2213;49.720;7.296;2023-06-22T06:28:00;98083.09;;;22.37;100.00
4398;BME280;2213;49.720;7.296;2023-06-22T06:30:30;98084.97;;;22.41;100.00
4398;BME280;2213;49.720;7.296;2023-06-22T06:33:00;98082.59;;;22.45;100.00
4398;BME280;2213;49.720;7.296;2023-06-22T06:35:28;98087.09;;;22.49;100.00
4398;BME280;2213;49.720;7.296;2023-06-22T06:37:58;98099.41;;;22.55;100.00
4398;BME280;2213;49.720;7.296;2023-06-22T06:40:27;98101.28;;;22.60;100.00
4398;BME280;2213;49.720;7.296;2023-06-22T06:42:56;98098.88;;;22.64;100.00
4398;BME280;2213;49.720;7.296;2023-06-22T06:45:26;98098.66;;;22.70;100.00
4398;BME280;2213;49.720;7.296;2023-06-22T06:47:57;98097.06;;;22.74;100.00
4398;BME280;2213;49.720;7.296;2023-06-22T06:50:27;98094.44;;;22.79;100.00
4398;BME280;2213;49.720;7.296;2023-06-22T06:52:57;98084.56;;;22.80;100.00
4398;BME280;2213;49.720;7.296;2023-06-22T06:55:26;98086.13;;;22.81;100.00
4398;BME280;2213;49.720;7.296;2023-06-22T06:57:57;98084.31;;;22.86;100.00
4398;BME280;2213;49.720;7.296;2023-06-22T07:00:27;98086.16;;;22.91;100.00
4398;BME280;2213;49.720;7.296;2023-06-22T07:02:57;98074.69;;;22.95;100.00
4398;BME280;2213;49.720;7.296;2023-06-22T07:05:25;98087.50;;;22.98;100.00
4398;BME280;2213;49.720;7.296;2023-06-22T07:07:54;98078.72;;;23.03;100.00
4398;BME280;2213;49.720;7.296;2023-06-22T07:10:23;98069.13;;;23.07;100.00
4398;BME280;2213;49.720;7.296;2023-06-22T07:12:51;98060.81;;;23.08;100.00
4398;BME280;2213;49.720;7.296;2023-06-22T07:15:21;98057.38;;;23.13;100.00
4398;BME280;2213;49.720;7.296;2023-06-22T07:17:49;98050.16;;;23.19;100.00
4398;BME280;2213;49.720;7.296;2023-06-22T07:20:19;98045.88;;;23.23;100.00
4398;BME280;2213;49.720;7.296;2023-06-22T07:22:48;98048.56;;;23.28;100.00
4398;BME280;2213;49.720;7.296;2023-06-22T07:25:16;98037.09;;;23.32;100.00
4398;BME280;2213;49.720;7.296;2023-06-22T07:27:56;98036.81;;;23.34;100.00
4398;BME280;2213;49.720;7.296;2023-06-22T07:30:25;98044.00;;;23.38;100.00
4398;BME280;2213;49.720;7.296;2023-06-22T07:32:56;98037.88;;;23.43;100.00
4398;BME280;2213;49.720;7.296;2023-06-22T07:35:26;98035.47;;;23.46;100.00
4398;BME280;2213;49.720;7.296;2023-06-22T07:37:55;98032.00;;;23.51;100.00
4398;BME280;2213;49.720;7.296;2023-06-22T07:40:25;98031.19;;;23.55;100.00
4398;BME280;2213;49.720;7.296;2023-06-22T07:42:55;98029.84;;;23.58;100.00
4398;BME280;2213;49.720;7.296;2023-06-22T07:45:24;98026.63;;;23.61;100.00
4398;BME280;2213;49.720;7.296;2023-06-22T07:47:53;98033.56;;;23.62;100.00
4398;BME280;2213;49.720;7.296;2023-06-22T07:50:22;98023.66;;;23.68;100.00
4398;BME280;2213;49.720;7.296;2023-06-22T07:52:52;98019.13;;;23.68;100.00
4398;BME280;2213;49.720;7.296;2023-06-22T07:55:21;98019.13;;;23.73;100.00
4398;BME280;2213;49.720;7.296;2023-06-22T07:57:49;98014.03;;;23.77;100.00
4398;BME280;2213;49.720;7.296;2023-06-22T08:00:19;98015.34;;;23.84;100.00
4398;BME280;2213;49.720;7.296;2023-06-22T08:02:48;98015.06;;;23.91;100.00
4398;BME280;2213;49.720;7.296;2023-06-22T08:05:17;98027.31;;;23.97;100.00
4398;BME280;2213;49.720;7.296;2023-06-22T08:07:49;98009.66;;;24.01;100.00
4398;BME280;2213;49.720;7.296;2023-06-22T08:10:20;98005.91;;;24.02;100.00
4398;BME280;2213;49.720;7.296;2023-06-22T08:12:49;97989.59;;;24.09;100.00
4398;BME280;2213;49.720;7.296;2023-06-22T08:15:19;97973.81;;;24.12;100.00
4398;BME280;2213;49.720;7.296;2023-06-22T08:17:49;97968.75;;;24.16;100.00
4398;BME280;2213;49.720;7.296;2023-06-22T08:20:20;97970.56;;;24.20;100.00
4398;BME280;2213;49.720;7.296;2023-06-22T08:22:49;97952.09;;;24.24;100.00
4398;BME280;2213;49.720;7.296;2023-06-22T08:25:18;97948.06;;;24.26;100.00
4398;BME280;2213;49.720;7.296;2023-06-22T08:27:48;97942.97;;;24.30;100.00
4398;BME280;2213;49.720;7.296;2023-06-22T08:30:16;97944.00;;;24.34;100.00
4398;BME280;2213;49.720;7.296;2023-06-22T08:32:45;97949.03;;;24.40;100.00
4398;BME280;2213;49.720;7.296;2023-06-22T08:35:14;97957.84;;;24.46;100.00
4398;BME280;2213;49.720;7.296;2023-06-22T08:37:43;97965.81;;;24.51;100.00
4398;BME280;2213;49.720;7.296;2023-06-22T08:40:18;97967.16;;;24.53;100.00
4398;BME280;2213;49.720;7.296;2023-06-22T08:42:49;97968.72;;;24.60;100.00
4398;BME280;2213;49.720;7.296;2023-06-22T08:45:18;97958.25;;;24.63;100.00
4398;BME280;2213;49.720;7.296;2023-06-22T08:47:46;97951.53;;;24.66;100.00
4398;BME280;2213;49.720;7.296;2023-06-22T08:50:15;97954.19;;;24.71;100.00
4398;BME280;2213;49.720;7.296;2023-06-22T08:52:44;97946.63;;;24.78;100.00
4398;BME280;2213;49.720;7.296;2023-06-22T08:55:12;97951.13;;;24.82;100.00
4398;BME280;2213;49.720;7.296;2023-06-22T08:57:41;97958.34;;;24.87;100.00
4398;BME280;2213;49.720;7.296;2023-06-22T09:00:14;97931.56;;;24.92;100.00
4398;BME280;2213;49.720;7.296;2023-06-22T09:02:47;97929.88;;;24.96;100.00
4398;BME280;2213;49.720;7.296;2023-06-22T09:05:17;97925.00;;;25.03;100.00
4398;BME280;2213;49.720;7.296;2023-06-22T09:07:46;97930.56;;;25.12;100.00
4398;BME280;2213;49.720;7.296;2023-06-22T09:10:14;97926.72;;;25.18;100.00
4398;BME280;2213;49.720;7.296;2023-06-22T09:12:43;97914.88;;;25.24;100.00
4398;BME280;2213;49.720;7.296;2023-06-22T09:15:13;97908.09;;;25.31;100.00
4398;BME280;2213;49.720;7.296;2023-06-22T09:17:45;97906.19;;;25.37;100.00
4398;BME280;2213;49.720;7.296;2023-06-22T09:20:15;97897.22;;;25.46;100.00
4398;BME280;2213;49.720;7.296;2023-06-22T09:22:44;97899.31;;;25.55;100.00
4398;BME280;2213;49.720;7.296;2023-06-22T09:25:14;97899.44;;;25.63;100.00
4398;BME280;2213;49.720;7.296;2023-06-22T09:27:44;97900.97;;;25.69;100.00
4398;BME280;2213;49.720;7.296;2023-06-22T09:30:14;97904.91;;;25.77;100.00
4398;BME280;2213;49.720;7.296;2023-06-22T09:32:44;97902.16;;;25.82;100.00
4398;BME280;2213;49.720;7.296;2023-06-22T09:35:13;97917.88;;;25.88;100.00
4398;BME280;2213;49.720;7.296;2023-06-22T09:37:42;97928.31;;;25.90;100.00
4398;BME280;2213;49.720;7.296;2023-06-22T09:40:12;97923.97;;;25.94;100.00
4398;BME280;2213;49.720;7.296;2023-06-22T09:42:44;97925.78;;;25.98;100.00
4398;BME280;2213;49.720;7.296;2023-06-22T09:45:14;97934.03;;;26.02;100.00
4398;BME280;2213;49.720;7.296;2023-06-22T09:47:43;97916.31;;;26.06;100.00
4398;BME280;2213;49.720;7.296;2023-06-22T09:50:12;97910.06;;;26.11;100.00
4398;BME280;2213;49.720;7.296;2023-06-22T09:52:41;97913.75;;;26.15;100.00
4398;BME280;2213;49.720;7.296;2023-06-22T09:55:15;97909.44;;;26.19;100.00
4398;BME280;2213;49.720;7.296;2023-06-22T09:57:44;97902.69;;;26.21;100.00
4398;BME280;2213;49.720;7.296;2023-06-22T10:00:16;97899.34;;;26.29;100.00
4398;BME280;2213;49.720;7.296;2023-06-22T10:02:46;97892.59;;;26.32;100.00
4398;BME280;2213;49.720;7.296;2023-06-22T10:05:15;97893.34;;;26.37;100.00
4398;BME280;2213;49.720;7.296;2023-06-22T10:07:45;97894.03;;;26.43;100.00
4398;BME280;2213;49.720;7.296;2023-06-22T10:10:14;97894.94;;;26.52;100.00
4398;BME280;2213;49.720;7.296;2023-06-22T10:12:46;97891.91;;;26.59;100.00
4398;BME280;2213;49.720;7.296;2023-06-22T10:15:17;97885.38;;;26.65;100.00
4398;BME280;2213;49.720;7.296;2023-06-22T10:17:46;97881.28;;;26.67;100.00
4398;BME280;2213;49.720;7.296;2023-06-22T10:20:15;97885.47;;;26.73;100.00
4398;BME280;2213;49.720;7.296;2023-06-22T10:22:45;97879.22;;;26.78;100.00
4398;BME280;2213;49.720;7.296;2023-06-22T10:25:15;97887.47;;;26.81;100.00
4398;BME280;2213;49.720;7.296;2023-06-22T10:27:44;97882.41;;;26.80;100.00
4398;BME280;2213;49.720;7.296;2023-06-22T10:30:15;97871.97;;;26.78;100.00
4398;BME280;2213;49.720;7.296;2023-06-22T10:32:44;97869.53;;;26.82;100.00
4398;BME280;2213;49.720;7.296;2023-06-22T10:35:13;97860.06;;;26.84;100.00
4398;BME280;2213;49.720;7.296;2023-06-22T10:37:44;97874.50;;;26.88;100.00
4398;BME280;2213;49.720;7.296;2023-06-22T10:40:15;97872.31;;;26.90;100.00
4398;BME280;2213;49.720;7.296;2023-06-22T10:42:45;97874.22;;;26.90;100.00
4398;BME280;2213;49.720;7.296;2023-06-22T10:45:16;97859.19;;;26.89;100.00
4398;BME280;2213;49.720;7.296;2023-06-22T10:47:45;97854.84;;;26.93;100.00
4398;BME280;2213;49.720;7.296;2023-06-22T10:50:14;97863.56;;;26.98;100.00
4398;BME280;2213;49.720;7.296;2023-06-22T10:52:43;97856.22;;;27.04;100.00
4398;BME280;2213;49.720;7.296;2023-06-22T10:55:11;97851.84;;;27.08;100.00
4398;BME280;2213;49.720;7.296;2023-06-22T10:57:40;97853.34;;;27.14;100.00
4398;BME280;2213;49.720;7.296;2023-06-22T11:00:13;97843.09;;;27.16;100.00
4398;BME280;2213;49.720;7.296;2023-06-22T11:02:43;97840.81;;;27.23;100.00
4398;BME280;2213;49.720;7.296;2023-06-22T11:05:12;97826.47;;;27.28;100.00
4398;BME280;2213;49.720;7.296;2023-06-22T11:07:42;97831.44;;;27.34;100.00
4398;BME280;2213;49.720;7.296;2023-06-22T11:10:13;97826.47;;;27.41;100.00
4398;BME280;2213;49.720;7.296;2023-06-22T11:12:42;97824.19;;;27.48;100.00
4398;BME280;2213;49.720;7.296;2023-06-22T11:15:10;97808.47;;;27.56;99.30
4398;BME280;2213;49.720;7.296;2023-06-22T11:17:39;97809.94;;;27.62;96.85
4398;BME280;2213;49.720;7.296;2023-06-22T11:20:11;97803.66;;;27.66;96.75
4398;BME280;2213;49.720;7.296;2023-06-22T11:22:41;97803.22;;;27.73;97.79
4398;BME280;2213;49.720;7.296;2023-06-22T11:25:10;97801.50;;;27.77;96.93
4398;BME280;2213;49.720;7.296;2023-06-22T11:27:40;97792.53;;;27.81;96.04
4398;BME280;2213;49.720;7.296;2023-06-22T11:30:09;97790.84;;;27.85;96.16
4398;BME280;2213;49.720;7.296;2023-06-22T11:32:38;97787.22;;;27.90;96.61
4398;BME280;2213;49.720;7.296;2023-06-22T11:35:07;97787.91;;;27.95;96.54
4398;BME280;2213;49.720;7.296;2023-06-22T11:37:37;97796.34;;;28.02;98.27
4398;BME280;2213;49.720;7.296;2023-06-22T11:40:08;97788.75;;;28.05;99.50
4398;BME280;2213;49.720;7.296;2023-06-22T11:42:37;97782.00;;;28.07;97.83
4398;BME280;2213;49.720;7.296;2023-06-22T11:45:07;97783.56;;;28.08;97.01
4398;BME280;2213;49.720;7.296;2023-06-22T11:47:35;97784.69;;;28.07;95.86
4398;BME280;2213;49.720;7.296;2023-06-22T11:50:06;97769.03;;;28.09;93.22
4398;BME280;2213;49.720;7.296;2023-06-22T11:52:36;97758.28;;;28.09;93.81
4398;BME280;2213;49.720;7.296;2023-06-22T11:55:07;97767.31;;;28.13;94.78
4398;BME280;2213;49.720;7.296;2023-06-22T11:57:37;97761.22;;;28.21;94.42
4398;BME280;2213;49.720;7.296;2023-06-22T12:00:08;97761.38;;;28.25;95.54
4398;BME280;2213;49.720;7.296;2023-06-22T12:02:45;97759.81;;;28.32;91.36
4398;BME280;2213;49.720;7.296;2023-06-22T12:05:14;97763.66;;;28.40;89.95
4398;BME280;2213;49.720;7.296;2023-06-22T12:07:44;97751.25;;;28.53;91.08
4398;BME280;2213;49.720;7.296;2023-06-22T12:10:12;97733.69;;;28.64;91.29
4398;BME280;2213;49.720;7.296;2023-06-22T12:12:41;97729.34;;;28.76;90.11
4398;BME280;2213;49.720;7.296;2023-06-22T12:15:10;97717.47;;;28.86;89.76
4398;BME280;2213;49.720;7.296;2023-06-22T12:17:40;97717.03;;;28.92;89.59
4398;BME280;2213;49.720;7.296;2023-06-22T12:20:10;97711.97;;;28.99;90.38
4398;BME280;2213;49.720;7.296;2023-06-22T12:22:40;97708.81;;;29.06;89.04
4398;BME280;2213;49.720;7.296;2023-06-22T12:25:11;97699.47;;;29.12;85.90
4398;BME280;2213;49.720;7.296;2023-06-22T12:27:40;97705.16;;;29.19;83.52
4398;BME280;2213;49.720;7.296;2023-06-22T12:30:09;97714.69;;;29.25;84.30
4398;BME280;2213;49.720;7.296;2023-06-22T12:32:38;97710.16;;;29.26;86.01
4398;BME280;2213;49.720;7.296;2023-06-22T12:35:08;97709.94;;;29.22;83.97
4398;BME280;2213;49.720;7.296;2023-06-22T12:37:41;97708.72;;;29.28;84.51
4398;BME280;2213;49.720;7.296;2023-06-22T12:40:12;97713.63;;;29.35;85.92
4398;BME280;2213;49.720;7.296;2023-06-22T12:42:41;97705.06;;;29.33;81.92
4398;BME280;2213;49.720;7.296;2023-06-22T12:45:10;97704.25;;;29.41;83.76
4398;BME280;2213;49.720;7.296;2023-06-22T12:47:39;97708.38;;;29.47;84.21
4398;BME280;2213;49.720;7.296;2023-06-22T12:50:09;97696.00;;;29.55;80.80
4398;BME280;2213;49.720;7.296;2023-06-22T12:52:40;97701.72;;;29.62;80.87
4398;BME280;2213;49.720;7.296;2023-06-22T12:55:11;97687.59;;;29.65;78.69
4398;BME280;2213;49.720;7.296;2023-06-22T12:57:40;97675.72;;;29.66;80.82
4398;BME280;2213;49.720;7.296;2023-06-22T13:00:11;97675.72;;;29.66;79.47
4398;BME280;2213;49.720;7.296;2023-06-22T13:02:40;97678.41;;;29.66;77.20
4398;BME280;2213;49.720;7.296;2023-06-22T13:05:09;97674.13;;;29.65;74.46
4398;BME280;2213;49.720;7.296;2023-06-22T13:07:38;97681.91;;;29.66;73.79
4398;BME280;2213;49.720;7.296;2023-06-22T13:10:07;97689.66;;;29.68;75.02
4398;BME280;2213;49.720;7.296;2023-06-22T13:12:38;97687.28;;;29.66;77.41
4398;BME280;2213;49.720;7.296;2023-06-22T13:15:08;97666.22;;;29.60;77.27
4398;BME280;2213;49.720;7.296;2023-06-22T13:17:37;97692.38;;;29.59;76.80
4398;BME280;2213;49.720;7.296;2023-06-22T13:20:07;97681.13;;;29.48;88.04
4398;BME280;2213;49.720;7.296;2023-06-22T13:22:37;97682.22;;;29.22;87.22
4398;BME280;2213;49.720;7.296;2023-06-22T13:25:09;97691.25;;;29.09;100.00
4398;BME280;2213;49.720;7.296;2023-06-22T13:27:42;97681.38;;;28.87;100.00